Morganton, North Carolina
Current Conditions -  °F | °C
As of 4:35 PM on Saturday 25 Oct 2014 (Local Time) from KMRN Reporting Station
Clear Clear  
Wind Chill: 76°   Ceiling: Unl
Heat Index: 76°   Visibility: 10mi
Dew Point: 33°   Wind: 5mph
Humidity: 21%   Direction: 200°SSW
Pressure: 29.99"   Gusts: NA
Location:  35.75°N, 81.68°W
Report Text: KMRN 252035Z AUTO 20004KT 10SM CLR 24/01 A2999 RMK AO2 T02420005
Loading
Personal Weather Stations






























Interactive Weather Map
Tropical Storm Tracking
New forecast layout! Learn more

10-Day Weather Forecast

Advertisements
Track Severe Weather on mobile